Time;durP1;ratioP1;P1;durP2;ratioP2;P2;SDS_P1;SDS_P2;PMS_P1;PMS_P2;Temp;Humidity;BMP_temperature;BMP_pressure;BME280_temperature;BME280_humidity;BME280_pressure;Samples;Min_cycle;Max_cycle;Signal;HPM_P1;HPM_P2
2022/01/29 00:01:21;;;;;;;7.07;4.30;;;;;;;0.91;100.00;96148.56;5062056;28;20358;-73
2022/01/29 00:04:07;;;;;;;9.43;4.60;;;;;;;0.97;100.00;96144.41;5068128;28;20250;-73
2022/01/29 00:06:53;;;;;;;6.47;4.30;;;;;;;0.86;100.00;96140.81;5058207;28;20225;-73
2022/01/29 00:09:39;;;;;;;8.17;4.23;;;;;;;0.98;100.00;96145.19;5058399;28;20194;-73
2022/01/29 00:12:25;;;;;;;8.37;4.83;;;;;;;1.12;100.00;96148.06;5045624;28;20721;-73
2022/01/29 00:15:11;;;;;;;7.73;4.47;;;;;;;1.04;100.00;96125.66;5064893;28;20261;-73
2022/01/29 00:17:57;;;;;;;5.53;4.10;;;;;;;0.99;100.00;96122.50;5061261;28;20190;-72
2022/01/29 00:20:43;;;;;;;6.23;4.67;;;;;;;1.02;100.00;96111.00;5050662;28;20244;-73
2022/01/29 00:23:29;;;;;;;9.43;4.40;;;;;;;1.07;100.00;96108.00;5072365;28;20199;-73
2022/01/29 00:26:20;;;;;;;5.47;3.67;;;;;;;1.12;100.00;96099.63;5088361;28;20614;-73
2022/01/29 00:29:16;;;;;;;7.43;4.47;;;;;;;0.99;100.00;96092.91;5045930;28;20259;-73
2022/01/29 00:32:02;;;;;;;7.83;4.60;;;;;;;1.04;100.00;96077.25;5039984;28;20292;-73
2022/01/29 00:34:48;;;;;;;7.33;4.30;;;;;;;1.07;100.00;96070.34;5062997;28;20189;-73
2022/01/29 00:37:33;;;;;;;7.27;4.83;;;;;;;0.94;100.00;96074.41;5076907;28;20185;-73
2022/01/29 00:40:21;;;;;;;6.60;4.33;;;;;;;0.99;100.00;96055.25;5063969;28;20561;-73
2022/01/29 00:43:07;;;;;;;8.67;4.43;;;;;;;0.93;100.00;96036.00;5061256;28;20934;-73
2022/01/29 00:45:53;;;;;;;8.57;4.57;;;;;;;0.85;100.00;96041.66;5074100;28;20197;-73
2022/01/29 00:48:39;;;;;;;7.53;4.30;;;;;;;0.86;100.00;96051.28;5072251;28;20186;-73
2022/01/29 00:51:24;;;;;;;6.57;4.73;;;;;;;0.88;100.00;96041.69;5085439;28;20223;-73
2022/01/29 00:54:10;;;;;;;8.43;4.70;;;;;;;0.79;100.00;96045.81;5057179;28;20186;-73
2022/01/29 00:56:56;;;;;;;7.53;5.10;;;;;;;0.91;100.00;96037.50;5069988;28;20185;-73
2022/01/29 00:59:42;;;;;;;4.57;3.80;;;;;;;0.85;100.00;96052.41;5066366;28;20210;-73
2022/01/29 01:02:28;;;;;;;7.77;4.37;;;;;;;0.79;100.00;96041.22;5072307;28;20198;-72
2022/01/29 01:05:14;;;;;;;8.73;5.00;;;;;;;0.63;100.00;96035.25;5058310;28;20200;-73
2022/01/29 01:08:00;;;;;;;6.43;3.77;;;;;;;0.66;100.00;96029.13;5070490;28;20201;-73
2022/01/29 01:10:46;;;;;;;10.10;4.37;;;;;;;0.64;100.00;96042.19;5055337;28;20239;-75
2022/01/29 01:13:33;;;;;;;6.17;3.90;;;;;;;0.73;100.00;96037.28;5070112;28;20197;-72
2022/01/29 01:16:19;;;;;;;8.70;4.80;;;;;;;0.79;100.00;96027.00;5061146;28;20202;-73
2022/01/29 01:19:05;;;;;;;8.10;4.77;;;;;;;0.60;100.00;96029.84;5053601;28;20305;-73
2022/01/29 01:21:56;;;;;;;8.30;4.50;;;;;;;0.66;100.00;96031.81;5051724;28;20226;-72
2022/01/29 01:24:42;;;;;;;6.50;4.67;;;;;;;0.54;100.00;96034.00;5049127;28;20243;-73
2022/01/29 01:27:28;;;;;;;6.57;4.43;;;;;;;0.52;100.00;96030.88;5056995;28;20327;-72
2022/01/29 01:30:14;;;;;;;6.37;4.37;;;;;;;0.31;100.00;96025.22;5052217;28;20295;-73
2022/01/29 01:33:03;;;;;;;7.33;3.83;;;;;;;0.21;100.00;96009.75;5051908;28;20209;-72
2022/01/29 01:35:53;;;;;;;8.67;4.00;;;;;;;0.31;100.00;96015.25;5054697;28;20197;-73
2022/01/29 01:38:48;;;;;;;6.00;4.07;;;;;;;0.47;100.00;95998.97;5060232;28;20261;-73
2022/01/29 01:41:39;;;;;;;15.57;8.13;;;;;;;0.44;100.00;95997.78;5038880;28;20210;-73
2022/01/29 01:44:32;;;;;;;13.17;7.10;;;;;;;0.52;100.00;95990.56;5061564;28;20573;-72
2022/01/29 01:47:17;;;;;;;11.97;6.20;;;;;;;0.67;100.00;95981.53;5059029;28;20194;-73
2022/01/29 01:50:06;;;;;;;8.10;5.43;;;;;;;0.71;100.00;95979.69;5058221;28;20217;-73
2022/01/29 01:52:52;;;;;;;6.93;4.73;;;;;;;0.50;100.00;95976.72;5078728;28;20272;-73
2022/01/29 01:55:38;;;;;;;7.00;3.87;;;;;;;0.42;100.00;95965.13;5092576;28;20196;-73
2022/01/29 01:58:24;;;;;;;5.80;4.50;;;;;;;0.41;100.00;95955.50;5071297;28;20256;-73
2022/01/29 02:01:10;;;;;;;7.90;5.23;;;;;;;0.24;100.00;95961.44;5040607;28;20261;-73
2022/01/29 02:03:56;;;;;;;8.50;4.20;;;;;;;0.39;100.00;95959.72;5063685;28;20190;-73
2022/01/29 02:06:42;;;;;;;9.73;4.03;;;;;;;0.44;100.00;95959.41;5055688;28;20223;-73
2022/01/29 02:09:30;;;;;;;8.20;4.07;;;;;;;0.34;100.00;95952.75;5065068;28;20200;-73
2022/01/29 02:12:16;;;;;;;7.73;3.80;;;;;;;0.32;100.00;95951.56;5039162;28;20221;-73
2022/01/29 02:15:05;;;;;;;5.57;4.00;;;;;;;0.43;100.00;95950.56;5057418;28;20194;-74
2022/01/29 02:17:51;;;;;;;7.50;4.27;;;;;;;0.36;100.00;95939.72;5058047;28;20209;-73
2022/01/29 02:20:37;;;;;;;8.17;4.37;;;;;;;0.37;100.00;95930.53;5056135;28;20267;-73
2022/01/29 02:23:23;;;;;;;7.03;3.97;;;;;;;0.59;100.00;95942.28;5070627;28;20659;-73
2022/01/29 02:26:09;;;;;;;7.80;4.63;;;;;;;0.70;100.00;95924.34;5060637;28;20198;-73
2022/01/29 02:28:55;;;;;;;9.43;6.00;;;;;;;0.54;100.00;95905.00;5058961;28;20217;-73
2022/01/29 02:31:53;;;;;;;11.67;6.43;;;;;;;0.51;100.00;95914.53;5054997;28;20212;-73
2022/01/29 02:34:40;;;;;;;11.43;5.83;;;;;;;0.60;100.00;95914.25;5060813;28;20194;-73
2022/01/29 02:37:26;;;;;;;7.27;4.57;;;;;;;0.54;100.00;95905.00;5041855;28;20190;-72
2022/01/29 02:40:12;;;;;;;12.77;4.77;;;;;;;0.50;100.00;95902.25;5079281;28;20692;-73
2022/01/29 02:43:09;;;;;;;6.80;5.10;;;;;;;0.54;100.00;95905.00;5054334;28;20262;-72
2022/01/29 02:45:56;;;;;;;8.77;5.13;;;;;;;0.66;100.00;95907.44;5046011;28;20676;-73
2022/01/29 02:48:43;;;;;;;7.17;4.77;;;;;;;0.64;100.00;95905.09;5059687;28;20648;-73
2022/01/29 02:51:29;;;;;;;6.67;4.30;;;;;;;0.65;100.00;95908.53;5059709;28;20399;-72
2022/01/29 02:54:15;;;;;;;8.03;4.10;;;;;;;0.55;100.00;95893.09;5044321;28;20654;-73
2022/01/29 02:57:01;;;;;;;9.03;4.70;;;;;;;0.61;100.00;95891.63;5068741;28;20185;-73
2022/01/29 02:59:49;;;;;;;6.80;4.43;;;;;;;0.58;100.00;95892.34;5070005;28;20666;-73
2022/01/29 03:02:35;;;;;;;5.77;3.67;;;;;;;0.33;100.00;95881.34;5052429;28;20551;-73
2022/01/29 03:05:21;;;;;;;5.87;3.90;;;;;;;0.33;100.00;95888.63;5056913;28;20186;-72
2022/01/29 03:08:07;;;;;;;5.40;3.60;;;;;;;0.13;100.00;95881.88;5058821;28;20281;-73
2022/01/29 03:10:53;;;;;;;6.83;3.77;;;;;;;0.22;100.00;95896.56;5054016;28;20363;-72
2022/01/29 03:13:39;;;;;;;9.27;3.90;;;;;;;0.15;100.00;95899.19;5070983;28;20208;-73
2022/01/29 03:16:25;;;;;;;6.30;3.90;;;;;;;0.39;100.00;95892.56;5030177;28;20232;-73
2022/01/29 03:19:11;;;;;;;9.43;3.90;;;;;;;0.19;100.00;95885.81;5053892;28;20237;-73
2022/01/29 03:21:56;;;;;;;9.93;3.93;;;;;;;0.09;100.00;95881.06;5056556;28;20210;-73
2022/01/29 03:24:42;;;;;;;6.90;4.23;;;;;;;0.39;100.00;95861.06;5059075;28;20198;-73
2022/01/29 03:27:28;;;;;;;5.47;3.97;;;;;;;0.34;100.00;95857.94;5066457;28;20197;-73
2022/01/29 03:30:14;;;;;;;7.00;4.20;;;;;;;0.33;100.00;95865.22;5061751;28;20267;-73
2022/01/29 03:33:00;;;;;;;13.43;3.90;;;;;;;0.36;100.00;95864.50;5064865;28;20193;-73
2022/01/29 03:35:46;;;;;;;7.67;4.10;;;;;;;0.45;100.00;95856.91;5048977;28;20197;-73
2022/01/29 03:38:32;;;;;;;7.80;4.23;;;;;;;0.44;100.00;95858.03;5066101;28;20233;-73
2022/01/29 03:41:18;;;;;;;10.03;4.67;;;;;;;0.45;100.00;95842.69;5044873;28;20205;-73
2022/01/29 03:44:06;;;;;;;6.13;3.77;;;;;;;0.38;100.00;95850.69;5047228;28;20200;-73
2022/01/29 03:46:52;;;;;;;9.63;4.50;;;;;;;0.48;100.00;95850.03;5068748;28;20198;-73
2022/01/29 03:49:38;;;;;;;6.53;4.07;;;;;;;0.52;100.00;95840.09;5049192;28;20640;-73
2022/01/29 03:52:24;;;;;;;7.47;4.40;;;;;;;0.40;100.00;95851.09;5065746;28;20194;-73
2022/01/29 03:55:10;;;;;;;8.70;4.43;;;;;;;0.46;100.00;95838.88;5049455;28;20197;-73
2022/01/29 03:57:56;;;;;;;6.40;4.07;;;;;;;0.42;100.00;95846.91;5033244;28;20187;-73
2022/01/29 04:00:42;;;;;;;12.37;4.17;;;;;;;0.37;100.00;95844.56;5069760;28;20205;-73
2022/01/29 04:03:28;;;;;;;6.63;3.87;;;;;;;0.44;100.00;95849.22;5070236;28;20194;-73
2022/01/29 04:06:13;;;;;;;7.33;4.20;;;;;;;0.52;100.00;95840.09;5055099;28;20186;-73
2022/01/29 04:09:04;;;;;;;6.70;4.03;;;;;;;0.47;100.00;95826.97;5043985;28;20192;-73
2022/01/29 04:11:50;;;;;;;7.30;3.90;;;;;;;0.42;100.00;95825.41;5062507;28;20287;-73
2022/01/29 04:14:38;;;;;;;5.97;4.07;;;;;;;0.36;100.00;95823.41;5058691;28;20201;-72
2022/01/29 04:17:24;;;;;;;5.97;3.73;;;;;;;0.30;100.00;95814.94;5063504;28;20283;-73
2022/01/29 04:20:11;;;;;;;5.60;3.97;;;;;;;0.42;100.00;95824.63;5080021;28;20787;-73
2022/01/29 04:22:57;;;;;;;5.23;4.13;;;;;;;0.37;100.00;95822.28;5078639;28;20200;-73
2022/01/29 04:25:43;;;;;;;10.33;4.37;;;;;;;0.31;100.00;95829.13;5053958;28;20266;-73
2022/01/29 04:28:36;;;;;;;5.73;3.70;;;;;;;0.36;100.00;95826.88;5062040;28;20568;-73
2022/01/29 04:31:22;;;;;;;7.37;4.00;;;;;;;0.20;100.00;95831.72;5051380;28;20630;-73
2022/01/29 04:34:07;;;;;;;4.90;3.60;;;;;;;0.33;100.00;95824.16;5067673;28;20186;-72
2022/01/29 04:36:53;;;;;;;6.83;4.73;;;;;;;0.46;100.00;95802.03;5066002;28;21269;-73
2022/01/29 04:39:39;;;;;;;6.57;4.53;;;;;;;0.57;100.00;95807.50;5057050;28;20671;-73
2022/01/29 04:42:26;;;;;;;7.77;4.30;;;;;;;0.61;100.00;95802.94;5072480;28;20578;-73
2022/01/29 04:45:12;;;;;;;6.07;3.57;;;;;;;0.63;100.00;95790.66;5073059;28;20185;-73
2022/01/29 04:47:59;;;;;;;5.93;4.00;;;;;;;0.66;100.00;95807.97;5065267;28;20273;-73
2022/01/29 04:50:45;;;;;;;6.40;4.33;;;;;;;0.74;100.00;95796.91;5061970;28;20284;-73
2022/01/29 04:53:31;;;;;;;9.07;3.77;;;;;;;0.80;100.00;95800.00;5052716;28;20681;-73
2022/01/29 04:56:19;;;;;;;4.77;3.57;;;;;;;0.83;100.00;95818.09;5049775;28;20193;-73
2022/01/29 04:59:05;;;;;;;4.73;3.40;;;;;;;0.80;100.00;95826.88;5071183;28;20224;-75
2022/01/29 05:01:51;;;;;;;6.30;3.70;;;;;;;0.83;100.00;95810.03;5067192;28;20266;-73
2022/01/29 05:04:36;;;;;;;5.47;3.73;;;;;;;0.82;100.00;95800.41;5073855;28;20189;-73
2022/01/29 05:07:22;;;;;;;6.50;3.90;;;;;;;0.76;100.00;95812.66;5055912;28;20635;-73
2022/01/29 05:10:09;;;;;;;3.77;3.10;;;;;;;0.71;100.00;95813.75;5063505;28;20230;-73
2022/01/29 05:13:01;;;;;;;6.33;3.80;;;;;;;0.67;100.00;95810.28;5047859;28;20189;-73
2022/01/29 05:27:46;;;;;;;6.17;3.27;;;;;;;0.56;100.00;95782.53;5060776;28;20217;-73
2022/01/29 05:30:32;;;;;;;7.63;4.07;;;;;;;0.71;100.00;95789.56;5054199;28;20256;-73
2022/01/29 05:33:18;;;;;;;5.90;3.83;;;;;;;0.65;100.00;95776.84;5062209;28;20655;-72
2022/01/29 05:36:04;;;;;;;6.27;4.03;;;;;;;0.70;100.00;95789.94;5060068;28;20671;-73
2022/01/29 05:38:50;;;;;;;6.50;4.23;;;;;;;0.73;100.00;95787.28;5047156;28;20304;-73
2022/01/29 05:41:36;;;;;;;6.50;3.83;;;;;;;0.73;100.00;95798.03;5062653;28;20206;-73
2022/01/29 05:44:22;;;;;;;5.87;3.80;;;;;;;0.73;100.00;95786.53;5070942;28;20221;-73
2022/01/29 05:47:08;;;;;;;4.83;3.60;;;;;;;0.70;100.00;95784.56;5054386;28;20399;-73
2022/01/29 05:49:54;;;;;;;6.03;4.10;;;;;;;0.74;100.00;95788.06;5053704;28;20676;-73
2022/01/29 05:52:40;;;;;;;6.97;4.27;;;;;;;0.69;100.00;95775.75;5074711;28;20189;-73
2022/01/29 05:55:26;;;;;;;5.73;3.90;;;;;;;0.73;100.00;95776.53;5070996;28;20213;-73
2022/01/29 05:58:13;;;;;;;5.50;4.07;;;;;;;0.77;100.00;95774.66;5073353;28;20203;-73
2022/01/29 06:00:59;;;;;;;5.70;3.97;;;;;;;0.68;100.00;95787.63;5066580;28;20238;-73
2022/01/29 06:03:45;;;;;;;5.37;3.83;;;;;;;0.78;100.00;95783.50;5065651;28;20216;-73
2022/01/29 06:06:32;;;;;;;5.97;4.23;;;;;;;0.84;100.00;95779.31;5070403;28;20190;-73
2022/01/29 06:09:18;;;;;;;5.27;4.07;;;;;;;0.98;100.00;95774.03;5058868;28;20236;-73
2022/01/29 06:12:04;;;;;;;4.53;3.57;;;;;;;0.94;100.00;95795.53;5088566;28;20560;-73
2022/01/29 06:14:50;;;;;;;5.43;3.30;;;;;;;0.83;100.00;95794.66;5085458;28;20254;-73
2022/01/29 06:17:36;;;;;;;5.13;3.70;;;;;;;0.86;100.00;95771.63;5062911;28;20190;-73
2022/01/29 06:20:22;;;;;;;6.10;3.73;;;;;;;0.89;100.00;95777.03;5068886;28;20221;-73
2022/01/29 06:23:09;;;;;;;6.60;3.13;;;;;;;0.97;100.00;95767.09;5055655;28;20228;-73
2022/01/29 06:25:57;;;;;;;5.33;3.50;;;;;;;0.90;100.00;95783.94;5056705;28;20216;-73
2022/01/29 06:28:43;;;;;;;4.33;3.20;;;;;;;0.89;100.00;95776.25;5064903;28;20372;-73
2022/01/29 06:31:29;;;;;;;3.83;3.33;;;;;;;0.66;100.00;95781.84;5047666;28;20275;-73
2022/01/29 06:34:15;;;;;;;8.53;3.77;;;;;;;0.63;100.00;95779.16;5060211;28;20200;-73
2022/01/29 06:37:00;;;;;;;5.30;3.87;;;;;;;0.67;100.00;95780.72;5065288;28;20197;-73
2022/01/29 06:39:46;;;;;;;4.10;3.17;;;;;;;0.79;100.00;95776.97;5076809;28;20221;-72
2022/01/29 06:42:32;;;;;;;5.77;3.70;;;;;;;0.89;100.00;95773.56;5071691;28;20196;-73
2022/01/29 06:45:18;;;;;;;3.97;2.93;;;;;;;0.94;100.00;95773.22;5056867;28;20220;-73
2022/01/29 06:48:05;;;;;;;2.17;1.97;;;;;;;0.98;97.00;95776.72;5046965;28;20190;-73
2022/01/29 06:50:51;;;;;;;3.77;2.30;;;;;;;1.18;99.68;95770.72;5047509;28;20292;-73
2022/01/29 06:53:37;;;;;;;2.70;1.80;;;;;;;1.17;91.00;95782.59;5051536;28;20277;-73
2022/01/29 06:56:23;;;;;;;1.50;1.40;;;;;;;1.13;88.01;95776.44;5035940;28;20194;-73
2022/01/29 06:59:09;;;;;;;1.60;1.50;;;;;;;1.25;85.56;95775.34;5050409;28;20214;-73
2022/01/29 07:01:54;;;;;;;2.50;1.20;;;;;;;1.40;82.22;95766.19;5055627;28;20263;-73
2022/01/29 07:04:41;;;;;;;1.37;1.20;;;;;;;1.46;81.79;95762.00;5069725;28;20612;-73
2022/01/29 07:07:26;;;;;;;1.90;1.40;;;;;;;1.58;78.56;95744.75;5052051;28;20222;-73
2022/01/29 07:10:12;;;;;;;1.73;1.17;;;;;;;1.67;77.02;95724.41;5054152;28;20217;-73
2022/01/29 07:12:59;;;;;;;1.40;1.00;;;;;;;1.89;72.28;95736.00;5053916;28;20205;-73
2022/01/29 07:15:44;;;;;;;0.97;0.87;;;;;;;1.96;71.86;95739.50;5067675;28;20663;-73
2022/01/29 07:18:30;;;;;;;0.90;0.73;;;;;;;2.03;71.78;95734.13;5062153;28;20663;-73
2022/01/29 07:21:16;;;;;;;2.30;0.90;;;;;;;2.11;69.29;95724.91;5067877;28;20252;-73
2022/01/29 07:24:02;;;;;;;1.70;1.07;;;;;;;2.21;68.22;95720.66;5038805;28;20243;-72
2022/01/29 07:26:48;;;;;;;0.90;0.87;;;;;;;2.29;68.06;95722.25;5054158;28;20227;-73
2022/01/29 07:29:35;;;;;;;0.80;0.80;;;;;;;2.28;67.02;95718.78;5061030;28;20645;-73
2022/01/29 07:32:20;;;;;;;1.50;1.00;;;;;;;2.31;66.27;95707.22;5056290;28;20186;-73
2022/01/29 07:35:07;;;;;;;1.03;0.90;;;;;;;2.42;64.68;95713.41;5051645;28;20240;-72
2022/01/29 07:37:53;;;;;;;1.63;1.00;;;;;;;2.54;64.73;95706.06;5040924;28;20205;-73
2022/01/29 07:40:38;;;;;;;1.03;0.83;;;;;;;2.69;61.88;95705.69;5056443;28;20224;-73
2022/01/29 07:43:24;;;;;;;1.10;0.90;;;;;;;2.75;63.14;95720.28;5035859;28;20194;-73
2022/01/29 07:46:10;;;;;;;1.73;0.90;;;;;;;2.82;62.04;95720.28;5047360;28;20639;-73
2022/01/29 07:48:56;;;;;;;0.60;0.60;;;;;;;2.98;60.38;95734.16;5074453;28;20190;-73
2022/01/29 07:51:42;;;;;;;1.03;0.80;;;;;;;2.99;60.05;95733.00;5042361;28;20214;-73
2022/01/29 07:54:28;;;;;;;1.00;0.90;;;;;;;2.98;59.16;95726.06;5069976;28;20224;-73
2022/01/29 07:57:14;;;;;;;1.27;0.90;;;;;;;2.97;58.67;95727.22;5070036;28;20194;-73
2022/01/29 08:00:00;;;;;;;2.57;0.87;;;;;;;3.01;59.13;95727.97;5042805;28;20245;-73
2022/01/29 08:02:46;;;;;;;0.57;0.53;;;;;;;3.02;58.61;95731.47;5061966;28;20731;-73
2022/01/29 08:05:34;;;;;;;1.07;0.70;;;;;;;2.99;58.04;95734.91;5041628;28;20681;-73
2022/01/29 08:08:20;;;;;;;0.60;0.60;;;;;;;3.01;58.80;95727.97;5060580;28;20232;-73
2022/01/29 08:11:11;;;;;;;0.73;0.70;;;;;;;3.15;57.88;95729.88;5074135;28;20217;-73
2022/01/29 08:13:57;;;;;;;1.30;0.67;;;;;;;3.13;57.79;95716.78;5068262;28;20765;-72
2022/01/29 08:16:43;;;;;;;2.10;0.67;;;;;;;3.23;58.85;95731.41;5026660;28;20194;-73
2022/01/29 08:19:29;;;;;;;0.50;0.47;;;;;;;3.35;57.11;95729.06;5039072;28;20210;-73
2022/01/29 08:22:14;;;;;;;0.70;0.60;;;;;;;3.41;56.17;95737.53;5054713;28;20189;-73
2022/01/29 08:25:02;;;;;;;0.53;0.53;;;;;;;3.41;55.67;95735.59;5084376;28;20540;-73
2022/01/29 08:27:47;;;;;;;0.93;0.67;;;;;;;3.48;55.30;95738.28;5061292;28;20610;-72
2022/01/29 08:30:34;;;;;;;0.57;0.57;;;;;;;3.55;55.66;95740.94;5083169;28;20217;-73
2022/01/29 08:33:20;;;;;;;0.57;0.57;;;;;;;3.53;57.24;95739.78;5058068;28;20277;-73
2022/01/29 08:36:07;;;;;;;0.47;0.40;;;;;;;3.68;55.08;95727.81;5053695;28;20514;-73
2022/01/29 08:38:53;;;;;;;0.77;0.70;;;;;;;3.72;56.12;95732.00;5068432;28;20288;-73
2022/01/29 08:41:39;;;;;;;0.67;0.40;;;;;;;3.82;55.04;95730.41;5064342;28;20212;-73
2022/01/29 08:44:25;;;;;;;1.23;0.60;;;;;;;3.92;53.23;95732.28;5030843;28;20274;-73
2022/01/29 08:47:11;;;;;;;0.33;0.30;;;;;;;4.05;54.48;95719.88;5053553;28;20673;-73
2022/01/29 08:49:57;;;;;;;0.63;0.40;;;;;;;4.05;53.25;95716.41;5077773;28;20722;-73
2022/01/29 08:52:43;;;;;;;0.53;0.40;;;;;;;4.14;53.29;95720.19;5062284;28;20224;-73
2022/01/29 08:55:36;;;;;;;0.50;0.50;;;;;;;4.23;52.20;95708.94;5069532;28;20197;-73
2022/01/29 08:58:22;;;;;;;0.40;0.40;;;;;;;4.29;51.93;95693.88;5043979;28;20186;-73
2022/01/29 09:01:09;;;;;;;0.30;0.30;;;;;;;4.31;51.88;95695.00;5071208;28;20709;-73
2022/01/29 09:03:55;;;;;;;0.30;0.30;;;;;;;4.34;50.85;95699.63;5037538;28;20563;-73
2022/01/29 09:06:41;;;;;;;0.43;0.40;;;;;;;4.34;50.77;95693.44;5039208;28;20183;-73
2022/01/29 09:09:27;;;;;;;0.30;0.30;;;;;;;4.20;52.40;95699.72;5056803;28;20194;-73
2022/01/29 09:12:13;;;;;;;0.50;0.50;;;;;;;4.29;51.15;95702.75;5070165;28;20193;-73
2022/01/29 09:14:59;;;;;;;0.87;0.50;;;;;;;4.23;52.27;95684.63;5072020;28;20662;-73
2022/01/29 09:17:45;;;;;;;1.03;0.40;;;;;;;4.37;49.95;95695.34;5066271;28;20267;-73
2022/01/29 09:20:31;;;;;;;0.40;0.40;;;;;;;4.34;51.08;95696.91;5067516;28;20222;-73
2022/01/29 09:23:17;;;;;;;1.17;0.90;;;;;;;4.38;50.14;95696.88;5084699;28;20200;-73
2022/01/29 09:26:03;;;;;;;0.30;0.30;;;;;;;4.39;50.75;95701.91;5067017;28;20190;-73
2022/01/29 09:28:49;;;;;;;0.77;0.50;;;;;;;4.46;49.86;95695.66;5056932;28;20205;-73
2022/01/29 09:31:35;;;;;;;0.97;0.43;;;;;;;4.45;50.76;95691.41;5051404;28;20214;-73
2022/01/29 09:34:21;;;;;;;2.00;0.40;;;;;;;4.35;50.77;95694.97;5054345;28;20236;-73
2022/01/29 09:37:07;;;;;;;2.70;0.53;;;;;;;4.32;50.49;95704.66;5053837;28;20194;-73
2022/01/29 09:39:53;;;;;;;0.40;0.40;;;;;;;4.37;50.34;95698.03;5061107;28;20249;-73
2022/01/29 09:42:40;;;;;;;0.50;0.50;;;;;;;4.44;50.50;95698.78;5050438;28;20664;-73
2022/01/29 09:45:26;;;;;;;0.50;0.50;;;;;;;4.42;50.10;95693.00;5052403;28;20190;-73
2022/01/29 09:48:12;;;;;;;2.30;0.40;;;;;;;4.40;50.63;95692.63;5038170;28;20240;-73
2022/01/29 09:50:58;;;;;;;0.40;0.40;;;;;;;4.39;50.37;95699.19;5059773;28;20598;-73
2022/01/29 09:53:44;;;;;;;0.63;0.40;;;;;;;4.33;51.22;95691.88;5053408;28;20205;-73
2022/01/29 09:56:31;;;;;;;1.03;0.57;;;;;;;4.41;50.39;95696.09;5050173;28;20244;-73
2022/01/29 09:59:17;;;;;;;0.40;0.40;;;;;;;4.45;50.16;95702.22;5051424;28;20206;-73
2022/01/29 10:02:12;;;;;;;0.50;0.50;;;;;;;4.50;51.25;95689.06;5045615;28;20210;-73
2022/01/29 10:04:58;;;;;;;0.60;0.50;;;;;;;4.57;48.88;95694.41;5046290;28;20195;-73
2022/01/29 10:08:00;;;;;;;0.47;0.30;;;;;;;4.54;49.67;95697.91;5037007;28;20205;-73
2022/01/29 10:10:59;;;;;;;0.30;0.30;;;;;;;4.56;49.78;95700.22;5063212;28;20213;-73
2022/01/29 10:13:46;;;;;;;0.30;0.30;;;;;;;4.46;48.04;95701.81;5090040;28;20216;-73
2022/01/29 10:16:33;;;;;;;0.30;0.30;;;;;;;4.52;49.56;95711.06;5057870;28;20247;-73
2022/01/29 10:19:19;;;;;;;1.80;0.47;;;;;;;4.58;48.84;95695.19;5070619;28;20296;-73
2022/01/29 10:22:05;;;;;;;1.03;0.33;;;;;;;4.55;48.43;95715.69;5063688;28;20224;-72
2022/01/29 10:24:51;;;;;;;2.40;0.43;;;;;;;4.52;48.69;95711.06;5024415;28;20248;-73
2022/01/29 10:27:38;;;;;;;0.73;0.30;;;;;;;4.53;48.21;95707.19;5036893;28;20201;-73
2022/01/29 10:30:24;;;;;;;0.40;0.37;;;;;;;4.54;48.80;95703.34;5052161;28;20237;-73
2022/01/29 10:33:23;;;;;;;0.40;0.40;;;;;;;4.58;48.13;95712.16;5048213;28;20193;-73
2022/01/29 10:36:14;;;;;;;2.20;0.30;;;;;;;4.66;48.13;95708.25;5036461;28;20846;-73
2022/01/29 10:39:00;;;;;;;0.20;0.20;;;;;;;4.63;47.87;95703.63;5064554;28;20225;-73
2022/01/29 10:41:46;;;;;;;0.30;0.27;;;;;;;4.59;48.07;95702.13;5064274;28;20209;-73
2022/01/29 10:44:43;;;;;;;0.87;0.30;;;;;;;4.59;48.27;95704.84;5070806;28;20193;-73
2022/01/29 10:47:30;;;;;;;0.40;0.40;;;;;;;4.60;48.39;95715.25;5068414;28;20204;-72
2022/01/29 10:50:16;;;;;;;0.60;0.50;;;;;;;4.61;48.99;95705.22;5063510;28;20325;-73
2022/01/29 10:53:27;;;;;;;2.80;0.50;;;;;;;4.74;48.11;95708.94;5051709;28;20695;-73
2022/01/29 10:56:13;;;;;;;1.50;0.40;;;;;;;4.65;47.67;95717.53;5070469;28;20734;-72
2022/01/29 10:58:59;;;;;;;0.37;0.37;;;;;;;4.80;49.06;95707.38;5049261;28;20258;-73
2022/01/29 11:01:56;;;;;;;0.40;0.40;;;;;;;4.76;47.86;95704.69;5067196;28;20252;-73
2022/01/29 11:04:43;;;;;;;2.60;0.30;;;;;;;4.86;47.65;95703.81;5044020;28;20190;-74
2022/01/29 11:07:30;;;;;;;0.47;0.40;;;;;;;4.97;46.67;95702.97;5068260;28;20662;-73
2022/01/29 11:10:16;;;;;;;0.93;0.50;;;;;;;5.02;47.70;95680.88;5043605;28;20214;-73
2022/01/29 11:13:03;;;;;;;0.43;0.43;;;;;;;5.12;46.80;95672.66;5068755;28;20194;-73
2022/01/29 11:15:52;;;;;;;0.50;0.50;;;;;;;5.17;46.49;95674.13;5071124;28;20682;-73
2022/01/29 11:18:38;;;;;;;3.43;0.50;;;;;;;5.26;46.27;95663.59;5067909;28;20218;-73
2022/01/29 11:21:24;;;;;;;0.57;0.50;;;;;;;5.28;46.02;95651.16;5062959;28;20228;-73
2022/01/29 11:24:12;;;;;;;0.73;0.40;;;;;;;5.44;46.39;95651.38;5065898;28;20593;-73
2022/01/29 11:26:58;;;;;;;1.10;0.40;;;;;;;5.56;45.45;95645.44;5041395;28;20192;-73
2022/01/29 11:30:03;;;;;;;0.70;0.40;;;;;;;5.64;44.87;95633.31;5070599;28;20247;-73
2022/01/29 11:32:55;;;;;;;0.37;0.37;;;;;;;5.62;44.51;95624.81;5061787;28;20198;-73
2022/01/29 11:35:53;;;;;;;0.30;0.30;;;;;;;5.46;44.96;95632.78;5055214;28;20620;-72
2022/01/29 11:38:39;;;;;;;0.60;0.53;;;;;;;5.48;46.40;95629.66;5035892;28;20730;-72
2022/01/29 11:41:26;;;;;;;0.33;0.33;;;;;;;5.34;46.07;95627.91;5066159;28;20252;-72
2022/01/29 11:44:26;;;;;;;0.50;0.50;;;;;;;5.30;45.00;95627.16;5068765;28;20196;-72
2022/01/29 11:47:25;;;;;;;0.33;0.33;;;;;;;5.40;45.97;95628.97;5056342;28;20190;-72
2022/01/29 11:50:23;;;;;;;0.40;0.40;;;;;;;5.42;46.34;95631.28;5068751;28;20789;-72
2022/01/29 11:53:09;;;;;;;2.47;0.50;;;;;;;5.31;46.05;95636.06;5060917;28;20273;-72
2022/01/29 11:55:56;;;;;;;1.27;0.50;;;;;;;5.40;46.35;95637.09;5049989;28;20273;-72
2022/01/29 11:58:42;;;;;;;0.80;0.60;;;;;;;5.42;45.36;95620.44;5046958;28;20309;-72
2022/01/29 12:01:33;;;;;;;0.33;0.33;;;;;;;5.29;46.09;95622.94;5059004;28;20225;-72
2022/01/29 12:04:22;;;;;;;0.70;0.43;;;;;;;5.39;46.53;95616.63;5036019;28;20205;-72
2022/01/29 12:07:13;;;;;;;0.77;0.70;;;;;;;5.37;46.02;95623.59;5047965;28;20695;-72
2022/01/29 12:10:02;;;;;;;0.50;0.40;;;;;;;5.47;46.28;95626.19;5051379;28;20273;-73
2022/01/29 12:13:09;;;;;;;0.50;0.50;;;;;;;5.42;45.95;95618.50;5056579;28;20692;-72
2022/01/29 12:15:55;;;;;;;0.40;0.40;;;;;;;5.27;46.20;95610.97;5041839;28;20648;-72
2022/01/29 12:18:41;;;;;;;6.03;0.53;;;;;;;5.32;46.08;95608.56;5055232;28;20758;-72
2022/01/29 12:21:28;;;;;;;2.17;0.83;;;;;;;5.40;47.67;95599.19;5046054;28;20267;-73
2022/01/29 12:24:19;;;;;;;0.90;0.47;;;;;;;5.55;46.09;95597.06;5053640;28;20273;-72
2022/01/29 12:27:06;;;;;;;0.40;0.40;;;;;;;5.71;46.11;95589.09;5054651;28;20220;-72
2022/01/29 12:29:51;;;;;;;0.57;0.50;;;;;;;5.80;45.38;95575.81;5056169;28;20268;-72
2022/01/29 12:32:37;;;;;;;1.53;0.60;;;;;;;5.87;45.29;95600.13;5065792;28;20302;-72
2022/01/29 12:35:45;;;;;;;0.80;0.60;;;;;;;5.96;45.26;95593.00;5056109;28;20548;-72
2022/01/29 12:38:37;;;;;;;1.37;1.00;;;;;;;6.01;44.18;95581.69;5048611;28;20206;-72
2022/01/29 12:41:33;;;;;;;0.57;0.53;;;;;;;5.92;43.50;95557.03;5074429;28;20221;-72
2022/01/29 12:44:19;;;;;;;0.73;0.57;;;;;;;6.00;43.33;95565.84;5054816;28;20218;-72
2022/01/29 12:47:06;;;;;;;0.63;0.63;;;;;;;5.97;43.69;95569.38;5053875;28;20461;-72
2022/01/29 12:49:53;;;;;;;0.80;0.80;;;;;;;6.01;44.06;95562.72;5073565;28;20267;-72
2022/01/29 12:52:39;;;;;;;0.80;0.67;;;;;;;6.08;42.32;95551.75;5069333;28;20259;-72
2022/01/29 12:55:25;;;;;;;1.13;0.60;;;;;;;6.08;42.51;95568.03;5067580;28;20201;-73
2022/01/29 12:58:11;;;;;;;0.60;0.60;;;;;;;6.08;43.05;95530.06;5058146;28;20239;-73
2022/01/29 13:01:10;;;;;;;0.90;0.60;;;;;;;6.23;43.77;95514.31;5053177;28;20219;-73
2022/01/29 13:04:13;;;;;;;3.33;0.70;;;;;;;6.40;43.29;95528.75;5064581;28;20227;-73
2022/01/29 13:07:03;;;;;;;0.97;0.90;;;;;;;6.48;42.77;95516.59;5068096;28;20200;-73
2022/01/29 13:09:55;;;;;;;0.80;0.53;;;;;;;6.52;42.04;95509.91;5068219;28;20182;-73
2022/01/29 13:12:43;;;;;;;1.07;0.97;;;;;;;6.55;42.59;95503.66;5061647;28;20264;-73
2022/01/29 13:15:40;;;;;;;1.60;0.87;;;;;;;6.21;41.42;95505.81;5081074;28;20198;-73
2022/01/29 13:18:27;;;;;;;1.40;1.10;;;;;;;6.14;41.18;95504.00;5058510;28;20558;-73
2022/01/29 13:21:13;;;;;;;1.13;0.93;;;;;;;6.03;41.82;95508.84;5071308;28;20223;-73
2022/01/29 13:24:22;;;;;;;1.13;0.97;;;;;;;5.97;42.24;95504.31;5050817;28;20197;-73